Time;durP1;ratioP1;P1;durP2;ratioP2;P2;SDS_P1;SDS_P2;PMS_P1;PMS_P2;Temp;Humidity;BMP_temperature;BMP_pressure;BME280_temperature;BME280_humidity;BME280_pressure;Samples;Min_cycle;Max_cycle;Signal;HPM_P1;HPM_P2
2023/08/25 00:03:11;;;;;;;0.00;0.00;;;18.90;99.90;;;;;;8407666;28;20480;-80
2023/08/25 00:07:11;;;;;;;0.03;0.03;;;18.90;99.90;;;;;;8431000;28;20624;-81
2023/08/25 00:11:13;;;;;;;0.08;0.08;;;18.70;99.90;;;;;;8414114;28;20036;-81
2023/08/25 00:15:13;;;;;;;0.03;0.03;;;18.60;99.90;;;;;;8413578;28;20034;-82
2023/08/25 00:19:17;;;;;;;0.00;0.00;;;18.50;99.90;;;;;;8412781;28;20031;-81
2023/08/25 00:23:17;;;;;;;0.00;0.00;;;18.70;99.90;;;;;;8430407;28;20024;-81
2023/08/25 00:27:18;;;;;;;0.10;0.10;;;18.60;99.90;;;;;;8412141;28;20047;-81
2023/08/25 00:31:18;;;;;;;0.00;0.00;;;18.80;99.90;;;;;;8412873;28;20016;-81
2023/08/25 00:35:19;;;;;;;0.10;0.10;;;18.80;99.90;;;;;;8412414;28;20024;-81
2023/08/25 00:39:20;;;;;;;0.00;0.00;;;18.80;99.90;;;;;;8411986;28;20024;-81
2023/08/25 00:43:20;;;;;;;0.52;0.52;;;18.70;99.90;;;;;;8412067;28;20044;-81
2023/08/25 00:47:21;;;;;;;0.15;0.15;;;18.60;99.90;;;;;;8411869;28;20500;-82
2023/08/25 00:51:23;;;;;;;0.10;0.10;;;18.70;99.90;;;;;;8430166;28;20055;-81
2023/08/25 00:55:24;;;;;;;0.00;0.00;;;18.90;99.90;;;;;;8411755;28;20016;-82
2023/08/25 00:59:25;;;;;;;0.00;0.00;;;18.70;99.90;;;;;;8410947;28;20028;-82
2023/08/25 01:03:27;;;;;;;0.13;0.13;;;19.00;99.90;;;;;;8428970;28;20035;-82
2023/08/25 01:07:27;;;;;;;0.00;0.00;;;18.70;99.90;;;;;;8410899;28;20032;-82
2023/08/25 01:11:51;;;;;;;0.03;0.03;;;18.50;99.90;;;;;;8412489;28;20063;-82
2023/08/25 01:15:54;;;;;;;0.00;0.00;;;18.50;99.90;;;;;;8429000;28;20027;-82
2023/08/25 01:19:58;;;;;;;0.10;0.10;;;18.40;99.90;;;;;;8410113;28;20028;-82
2023/08/25 01:24:12;;;;;;;0.00;0.00;;;18.40;99.90;;;;;;8410177;28;20395;-82
2023/08/25 01:28:13;;;;;;;0.05;0.05;;;18.30;99.90;;;;;;8409274;28;20024;-82
2023/08/25 01:32:13;;;;;;;0.00;0.00;;;18.30;99.90;;;;;;8409827;28;20016;-82
2023/08/25 01:36:28;;;;;;;0.22;0.22;;;18.40;99.90;;;;;;8409968;28;20031;-82
2023/08/25 01:40:38;;;;;;;0.05;0.05;;;18.30;99.90;;;;;;8428200;28;20110;-83
2023/08/25 01:44:40;;;;;;;0.00;0.00;;;18.30;99.90;;;;;;8410032;28;20081;-82
2023/08/25 01:48:44;;;;;;;0.00;0.00;;;18.30;99.90;;;;;;8409620;28;20024;-82
2023/08/25 01:52:45;;;;;;;0.00;0.00;;;18.30;99.90;;;;;;8409333;28;20411;-83
2023/08/25 01:56:45;;;;;;;0.10;0.10;;;18.30;99.90;;;;;;8409649;28;20035;-82
2023/08/25 02:00:46;;;;;;;0.10;0.10;;;18.30;99.90;;;;;;8427101;28;20388;-83
2023/08/25 02:04:46;;;;;;;0.00;0.00;;;18.50;99.90;;;;;;8406912;28;20020;-83
2023/08/25 02:08:47;;;;;;;0.00;0.00;;;18.80;99.90;;;;;;8408956;28;20028;-83
2023/08/25 02:12:47;;;;;;;0.05;0.05;;;18.70;99.90;;;;;;8409123;28;20484;-83
2023/08/25 02:16:48;;;;;;;0.00;0.00;;;18.60;99.90;;;;;;8409186;28;20024;-83
2023/08/25 02:20:48;;;;;;;0.10;0.10;;;18.50;99.90;;;;;;8409132;28;20019;-83
2023/08/25 02:24:49;;;;;;;0.00;0.00;;;18.50;99.90;;;;;;8408701;28;20024;-83
2023/08/25 02:28:49;;;;;;;0.00;0.00;;;18.60;99.90;;;;;;8408312;28;20423;-83
2023/08/25 02:32:50;;;;;;;0.00;0.00;;;18.40;99.90;;;;;;8426545;28;20657;-83
2023/08/25 02:36:50;;;;;;;0.10;0.10;;;18.50;99.90;;;;;;8408473;28;20023;-83
2023/08/25 02:40:51;;;;;;;0.00;0.00;;;18.50;99.90;;;;;;8408638;28;20020;-83
2023/08/25 02:44:51;;;;;;;0.10;0.10;;;18.80;99.90;;;;;;8408543;28;20070;-83
2023/08/25 02:48:52;;;;;;;0.00;0.00;;;18.80;99.90;;;;;;8408520;28;20106;-83
2023/08/25 02:52:53;;;;;;;0.00;0.00;;;19.00;99.90;;;;;;8408990;28;20027;-82
2023/08/25 02:56:53;;;;;;;0.00;0.00;;;19.00;99.90;;;;;;8408928;28;20024;-84
2023/08/25 03:00:54;;;;;;;0.10;0.10;;;19.00;99.90;;;;;;8407963;28;20024;-83
2023/08/25 03:04:54;;;;;;;0.10;0.10;;;19.10;99.90;;;;;;8420419;28;20025;-82
2023/08/25 03:08:55;;;;;;;1.23;0.43;;;19.20;99.90;;;;;;8407902;28;20523;-83
2023/08/25 03:12:55;;;;;;;0.00;0.00;;;19.20;99.90;;;;;;8426247;28;20020;-83
2023/08/25 03:16:56;;;;;;;0.10;0.10;;;19.30;99.90;;;;;;8408193;28;20024;-82
2023/08/25 03:20:56;;;;;;;0.00;0.00;;;19.50;99.90;;;;;;8408397;28;20030;-82
2023/08/25 03:24:57;;;;;;;0.10;0.10;;;19.60;99.90;;;;;;8426205;28;20078;-82
2023/08/25 03:28:57;;;;;;;0.10;0.10;;;19.50;99.90;;;;;;8408292;28;20039;-82
2023/08/25 03:32:58;;;;;;;0.00;0.00;;;19.50;99.90;;;;;;8408501;28;20020;-83
2023/08/25 03:36:58;;;;;;;0.10;0.10;;;19.60;99.90;;;;;;8426538;28;20028;-82
2023/08/25 03:41:00;;;;;;;0.00;0.00;;;19.60;99.90;;;;;;8428031;28;20047;-82
2023/08/25 03:45:00;;;;;;;0.00;0.00;;;19.60;99.90;;;;;;8432669;28;20027;-81
2023/08/25 03:49:01;;;;;;;0.00;0.00;;;19.50;99.90;;;;;;8414431;28;20028;-82
2023/08/25 03:53:02;;;;;;;0.10;0.10;;;19.40;99.90;;;;;;8414221;28;20032;-82
2023/08/25 03:57:06;;;;;;;0.10;0.10;;;19.60;99.90;;;;;;8414058;28;20077;-81
2023/08/25 04:01:06;;;;;;;0.08;0.08;;;19.60;99.90;;;;;;8410300;28;20468;-81
2023/08/25 04:05:07;;;;;;;0.00;0.00;;;19.60;99.90;;;;;;8434113;28;20032;-81
2023/08/25 04:09:08;;;;;;;0.10;0.10;;;19.60;99.90;;;;;;8413052;28;20110;-81
2023/08/25 04:13:09;;;;;;;0.10;0.10;;;19.70;99.90;;;;;;8413187;28;20020;-80
2023/08/25 04:17:09;;;;;;;0.10;0.10;;;19.70;99.90;;;;;;8412761;28;20028;-82
2023/08/25 04:21:10;;;;;;;0.00;0.00;;;19.50;99.90;;;;;;8431127;28;20392;-82
2023/08/25 04:25:10;;;;;;;0.10;0.10;;;19.50;99.90;;;;;;8430681;28;20068;-80
2023/08/25 04:29:11;;;;;;;0.10;0.10;;;19.70;99.90;;;;;;8430724;28;20020;-79
2023/08/25 04:33:12;;;;;;;0.10;0.10;;;19.50;99.90;;;;;;8410028;28;20462;-79
2023/08/25 04:37:12;;;;;;;0.10;0.10;;;19.20;99.90;;;;;;8422946;28;20110;-79
2023/08/25 04:41:13;;;;;;;0.00;0.00;;;19.10;99.90;;;;;;8427408;28;20571;-79
2023/08/25 04:45:14;;;;;;;0.00;0.00;;;19.00;99.90;;;;;;8410924;28;20160;-78
2023/08/25 04:49:15;;;;;;;0.13;0.13;;;18.90;99.90;;;;;;8428943;28;20020;-78
2023/08/25 04:53:15;;;;;;;0.05;0.05;;;18.80;99.90;;;;;;8409490;28;20526;-79
2023/08/25 04:57:16;;;;;;;0.10;0.10;;;18.80;99.90;;;;;;8409586;28;20023;-79
2023/08/25 05:01:16;;;;;;;0.00;0.00;;;18.90;99.90;;;;;;8428783;28;20478;-79
2023/08/25 05:05:17;;;;;;;4.00;2.42;;;19.10;99.90;;;;;;8421493;28;20027;-79
2023/08/25 05:09:18;;;;;;;7.22;2.60;;;19.00;99.90;;;;;;8410392;28;20446;-78
2023/08/25 05:13:18;;;;;;;5.50;2.67;;;18.80;99.90;;;;;;8409539;28;20028;-79
2023/08/25 05:17:19;;;;;;;3.55;3.05;;;18.80;99.90;;;;;;8427640;28;20016;-79
2023/08/25 05:21:19;;;;;;;4.32;2.90;;;18.70;99.90;;;;;;8409724;28;20480;-78
2023/08/25 05:25:20;;;;;;;4.90;3.00;;;18.60;99.90;;;;;;8411289;28;20016;-79
2023/08/25 05:29:25;;;;;;;4.63;3.10;;;18.50;99.90;;;;;;8409288;28;20020;-79
2023/08/25 05:33:26;;;;;;;6.30;2.90;;;18.50;99.90;;;;;;8409208;28;20073;-79
2023/08/25 05:37:26;;;;;;;4.70;3.20;;;18.60;99.90;;;;;;8409227;28;20460;-79
2023/08/25 05:41:27;;;;;;;4.32;2.72;;;18.70;99.90;;;;;;8408842;28;20121;-78
2023/08/25 05:45:28;;;;;;;3.83;3.00;;;19.00;99.90;;;;;;8426709;28;20503;-77
2023/08/25 05:49:28;;;;;;;4.60;2.70;;;19.60;99.90;;;;;;8408632;28;20077;-79
2023/08/25 05:53:29;;;;;;;3.50;2.55;;;20.30;99.90;;;;;;8409052;28;20036;-78
2023/08/25 05:57:29;;;;;;;4.15;2.40;;;20.90;99.90;;;;;;8408444;28;20020;-79
2023/08/25 06:01:30;;;;;;;3.53;2.40;;;21.70;99.90;;;;;;8408899;28;20024;-78
2023/08/25 06:05:30;;;;;;;2.78;2.10;;;22.10;99.90;;;;;;8407749;28;20020;-78
2023/08/25 06:09:31;;;;;;;5.15;2.70;;;21.80;99.90;;;;;;8442509;22;20143;-84
2023/08/25 06:13:31;;;;;;;3.65;2.40;;;21.30;99.90;;;;;;8420170;28;20024;-83
2023/08/25 06:17:32;;;;;;;3.35;2.33;;;20.90;99.90;;;;;;8423094;28;20027;-84
2023/08/25 06:21:33;;;;;;;5.80;2.58;;;20.70;99.90;;;;;;8422288;28;20053;-84
2023/08/25 06:25:34;;;;;;;5.43;2.80;;;20.50;99.90;;;;;;8417221;28;20032;-84
2023/08/25 06:29:34;;;;;;;2.70;2.42;;;20.60;99.90;;;;;;8429522;28;20459;-83
2023/08/25 06:33:35;;;;;;;3.13;2.63;;;20.80;99.90;;;;;;8420791;28;20537;-83
2023/08/25 06:37:35;;;;;;;3.95;3.00;;;20.70;99.90;;;;;;8432623;28;20024;-84
2023/08/25 06:41:37;;;;;;;4.45;2.90;;;20.80;99.90;;;;;;8433786;28;20051;-84
2023/08/25 06:45:37;;;;;;;3.13;2.40;;;21.00;99.90;;;;;;8443098;28;20480;-83
2023/08/25 06:49:38;;;;;;;4.50;2.80;;;20.90;99.90;;;;;;8440029;28;20060;-84
2023/08/25 06:53:38;;;;;;;4.72;2.85;;;20.60;99.90;;;;;;8448902;28;20043;-84
2023/08/25 06:57:39;;;;;;;3.30;3.00;;;20.70;99.90;;;;;;8431993;28;20037;-83
2023/08/25 07:01:39;;;;;;;3.95;2.70;;;21.10;99.90;;;;;;8429738;28;20024;-83
2023/08/25 07:05:40;;;;;;;3.05;2.28;;;22.40;99.90;;;;;;8413723;28;20046;-82
2023/08/25 07:09:41;;;;;;;3.45;2.33;;;23.40;99.90;;;;;;8421741;28;20445;-83
2023/08/25 07:13:41;;;;;;;4.38;2.42;;;23.30;99.90;;;;;;8413238;28;20068;-83
2023/08/25 07:17:42;;;;;;;5.00;2.67;;;23.00;99.90;;;;;;8441341;28;20545;-83
2023/08/25 07:21:43;;;;;;;3.65;2.53;;;23.00;99.90;;;;;;8444525;28;20028;-83
2023/08/25 07:25:44;;;;;;;8.68;2.83;;;23.00;99.90;;;;;;8418469;28;20020;-83
2023/08/25 07:29:44;;;;;;;4.65;2.50;;;23.30;99.90;;;;;;8434132;28;20050;-82
2023/08/25 07:33:45;;;;;;;2.90;2.10;;;24.40;99.90;;;;;;8425037;28;20019;-82
2023/08/25 07:37:45;;;;;;;6.20;2.97;;;24.40;99.90;;;;;;8435316;28;20048;-82
2023/08/25 07:41:46;;;;;;;5.65;3.17;;;23.00;99.90;;;;;;8424270;28;20018;-82
2023/08/25 07:45:46;;;;;;;5.40;2.97;;;22.10;99.90;;;;;;8425364;28;20499;-81
2023/08/25 07:49:47;;;;;;;5.65;2.45;;;22.00;99.90;;;;;;8415229;28;20018;-82
2023/08/25 07:53:47;;;;;;;7.32;3.30;;;21.90;99.90;;;;;;8433968;28;20461;-81
2023/08/25 07:57:48;;;;;;;6.13;2.40;;;22.40;99.90;;;;;;8443404;28;20027;-81
2023/08/25 08:01:50;;;;;;;4.45;2.92;;;22.80;99.90;;;;;;8426791;28;20028;-82
2023/08/25 08:05:50;;;;;;;7.65;3.00;;;22.90;99.90;;;;;;8421198;28;20023;-81
2023/08/25 08:09:51;;;;;;;3.45;2.72;;;22.70;99.90;;;;;;8433747;28;20048;-81
2023/08/25 08:13:52;;;;;;;4.65;3.10;;;22.30;99.90;;;;;;8422074;28;20028;-81
2023/08/25 08:17:52;;;;;;;6.90;2.97;;;22.10;99.90;;;;;;8418566;28;20016;-81
2023/08/25 08:21:53;;;;;;;4.10;2.35;;;21.80;99.90;;;;;;8435653;28;20028;-80
2023/08/25 08:25:54;;;;;;;6.10;3.58;;;21.20;99.90;;;;;;8443295;28;20024;-81
2023/08/25 08:29:54;;;;;;;7.43;3.63;;;20.90;99.90;;;;;;8421837;28;20020;-81
2023/08/25 08:33:55;;;;;;;6.25;3.75;;;21.10;99.90;;;;;;8440382;28;20019;-81
2023/08/25 08:37:55;;;;;;;5.15;3.70;;;21.20;99.90;;;;;;8413591;28;20020;-82
2023/08/25 08:41:56;;;;;;;7.72;3.85;;;21.20;99.90;;;;;;8413681;28;20632;-81
2023/08/25 08:45:57;;;;;;;6.72;3.33;;;22.20;99.90;;;;;;8436869;28;20031;-81
2023/08/25 08:49:59;;;;;;;4.78;2.70;;;22.50;99.90;;;;;;8414216;28;20016;-81
2023/08/25 08:54:04;;;;;;;9.32;3.35;;;22.50;99.90;;;;;;8414503;28;20077;-80
2023/08/25 08:58:05;;;;;;;5.75;3.10;;;22.80;99.90;;;;;;8412056;28;20051;-82
2023/08/25 09:02:08;;;;;;;5.30;2.58;;;23.40;99.90;;;;;;8420921;28;20012;-81
2023/08/25 09:06:09;;;;;;;4.05;2.80;;;24.20;99.90;;;;;;8430774;28;20027;-81
2023/08/25 09:10:10;;;;;;;2.75;2.40;;;24.40;99.90;;;;;;8414672;28;20024;-80
2023/08/25 09:14:11;;;;;;;3.78;2.85;;;25.10;99.90;;;;;;8414789;28;20046;-80
2023/08/25 09:18:12;;;;;;;3.10;2.80;;;25.50;99.90;;;;;;8439444;28;20024;-81
2023/08/25 09:22:16;;;;;;;4.55;2.40;;;25.70;99.90;;;;;;8412595;28;20593;-81
2023/08/25 09:26:17;;;;;;;5.50;2.88;;;26.20;99.90;;;;;;8406736;28;20012;-81
2023/08/25 09:30:17;;;;;;;3.85;2.20;;;26.60;99.90;;;;;;8428221;28;20017;-82
2023/08/25 09:34:18;;;;;;;4.32;2.80;;;26.80;99.90;;;;;;8420472;28;20104;-81
2023/08/25 09:38:22;;;;;;;4.22;2.40;;;27.10;99.90;;;;;;8418865;28;20028;-81
2023/08/25 09:42:23;;;;;;;3.20;2.30;;;26.80;99.90;;;;;;8431520;28;20510;-81
2023/08/25 09:46:31;;;;;;;7.78;3.53;;;27.20;99.90;;;;;;8419944;28;20020;-81
2023/08/25 09:50:37;;;;;;;4.05;2.60;;;28.00;99.90;;;;;;8410746;28;20510;-80
2023/08/25 09:54:38;;;;;;;6.05;3.03;;;28.50;99.90;;;;;;8429852;28;20020;-82
2023/08/25 09:58:39;;;;;;;4.93;2.45;;;28.90;99.90;;;;;;8419592;28;20016;-81
2023/08/25 10:02:40;;;;;;;4.88;3.30;;;28.40;99.90;;;;;;8427406;28;20020;-82
2023/08/25 10:06:41;;;;;;;4.82;2.78;;;28.60;99.90;;;;;;8415436;28;20023;-81
2023/08/25 10:10:44;;;;;;;3.75;2.30;;;28.70;99.90;;;;;;8413201;28;20032;-81
2023/08/25 10:14:47;;;;;;;3.25;2.17;;;28.70;99.90;;;;;;8413392;28;20446;-82
2023/08/25 10:18:49;;;;;;;3.92;2.30;;;28.60;99.90;;;;;;8424480;28;20445;-82
2023/08/25 10:22:51;;;;;;;4.40;2.55;;;29.60;99.90;;;;;;8416444;28;20020;-82
2023/08/25 10:26:53;;;;;;;2.63;2.00;;;30.80;99.90;;;;;;8413368;28;20466;-82
2023/08/25 10:30:54;;;;;;;4.15;2.00;;;31.70;99.90;;;;;;8410405;28;20040;-81
2023/08/25 10:34:56;;;;;;;3.35;1.80;;;31.90;99.90;;;;;;8410281;28;20027;-82
2023/08/25 10:38:59;;;;;;;4.43;1.90;;;31.30;99.90;;;;;;8409168;28;20028;-81
2023/08/25 10:43:04;;;;;;;2.55;2.10;;;31.90;99.90;;;;;;8408600;28;20024;-81
2023/08/25 10:47:05;;;;;;;3.65;2.08;;;33.00;99.90;;;;;;8409896;28;20028;-83
2023/08/25 10:51:10;;;;;;;3.95;1.80;;;32.70;99.90;;;;;;8429762;28;20073;-81
2023/08/25 10:55:32;;;;;;;3.60;1.75;;;32.40;99.90;;;;;;8443873;28;20310;-81
2023/08/25 10:59:32;;;;;;;3.53;2.10;;;32.80;99.90;;;;;;8411915;28;20673;-81
2023/08/25 11:04:04;;;;;;;3.53;3.10;;;32.90;99.90;;;;;;8429683;28;20031;-81
2023/08/25 11:08:21;;;;;;;2.10;1.40;;;33.50;99.90;;;;;;8443929;28;20044;-82
2023/08/25 11:12:25;;;;;;;3.00;2.13;;;33.10;99.40;;;;;;8410694;28;20039;-81
2023/08/25 11:16:26;;;;;;;3.75;1.95;;;33.60;99.90;;;;;;8417299;28;20024;-83
2023/08/25 11:20:29;;;;;;;3.25;1.83;;;33.10;98.10;;;;;;8444894;28;20023;-82
2023/08/25 11:24:30;;;;;;;2.78;2.20;;;31.90;96.90;;;;;;8430235;28;20410;-81
2023/08/25 11:28:31;;;;;;;4.05;2.00;;;31.30;99.90;;;;;;8434075;28;20511;-81
2023/08/25 11:32:32;;;;;;;4.78;2.47;;;31.10;99.90;;;;;;8413796;28;20020;-81
2023/08/25 11:36:32;;;;;;;2.38;2.13;;;31.30;98.30;;;;;;8433714;28;20036;-81
2023/08/25 11:40:38;;;;;;;3.67;2.30;;;31.70;99.70;;;;;;8407257;28;20119;-82
2023/08/25 11:44:43;;;;;;;3.13;2.20;;;31.90;99.90;;;;;;8407496;28;20024;-81
2023/08/25 11:48:48;;;;;;;5.90;2.67;;;31.90;99.30;;;;;;8432955;28;20024;-82
2023/08/25 11:52:48;;;;;;;3.58;2.20;;;31.20;99.90;;;;;;8415454;28;20020;-80
2023/08/25 11:56:52;;;;;;;3.65;2.47;;;31.20;99.90;;;;;;8410214;28;20027;-80
2023/08/25 12:00:58;;;;;;;3.17;2.50;;;31.00;99.90;;;;;;8408563;28;20024;-81
2023/08/25 12:05:03;;;;;;;3.35;2.05;;;31.00;99.90;;;;;;8428227;28;20036;-81
2023/08/25 12:09:08;;;;;;;3.03;1.88;;;30.30;99.90;;;;;;8405213;28;20051;-80
2023/08/25 12:13:08;;;;;;;3.38;2.08;;;30.00;99.90;;;;;;8416910;28;20052;-82
2023/08/25 12:17:20;;;;;;;3.85;2.60;;;30.00;99.90;;;;;;8424031;28;20030;-80
2023/08/25 12:21:21;;;;;;;5.22;2.45;;;29.70;99.90;;;;;;8407554;28;20049;-81
2023/08/25 12:25:22;;;;;;;5.38;3.00;;;29.50;99.90;;;;;;8441591;28;20051;-81
2023/08/25 12:29:22;;;;;;;7.95;4.07;;;29.20;99.90;;;;;;8433457;28;20028;-81
2023/08/25 12:33:23;;;;;;;11.45;4.00;;;28.90;99.90;;;;;;8426145;28;20479;-80
2023/08/25 12:37:23;;;;;;;6.47;3.70;;;28.70;99.90;;;;;;8431878;28;20020;-81
2023/08/25 12:41:24;;;;;;;6.22;3.70;;;28.40;99.90;;;;;;8407122;28;20024;-81
2023/08/25 12:45:25;;;;;;;6.63;3.88;;;28.10;99.90;;;;;;8417412;28;20028;-81
2023/08/25 12:49:25;;;;;;;6.85;3.35;;;27.80;99.90;;;;;;8418050;28;20028;-81
2023/08/25 12:53:26;;;;;;;4.20;3.33;;;28.00;99.90;;;;;;8432295;28;20074;-80
2023/08/25 12:57:26;;;;;;;5.60;3.50;;;28.20;99.90;;;;;;8427457;28;20028;-81
2023/08/25 13:01:27;;;;;;;5.90;3.35;;;28.10;99.90;;;;;;8397697;28;20094;-82
2023/08/25 13:05:29;;;;;;;5.65;3.33;;;27.90;99.90;;;;;;8430281;28;20074;-81
2023/08/25 13:09:30;;;;;;;6.68;3.63;;;27.80;99.90;;;;;;8439862;28;20028;-81
2023/08/25 13:13:30;;;;;;;5.18;3.47;;;27.20;99.90;;;;;;8445610;28;20016;-81
2023/08/25 13:17:31;;;;;;;4.50;3.42;;;26.80;99.90;;;;;;8413261;28;20028;-82
2023/08/25 13:21:31;;;;;;;5.90;3.65;;;26.30;99.90;;;;;;8433971;28;20081;-80
2023/08/25 13:25:32;;;;;;;13.52;5.45;;;26.30;99.90;;;;;;8433620;28;20074;-81
2023/08/25 13:29:32;;;;;;;5.22;3.40;;;26.80;99.90;;;;;;8412747;28;20062;-80
2023/08/25 13:33:33;;;;;;;6.05;3.88;;;26.80;99.90;;;;;;8437308;28;20039;-82
2023/08/25 13:37:34;;;;;;;6.43;3.72;;;26.60;99.90;;;;;;8433850;28;20020;-81
2023/08/25 13:41:34;;;;;;;4.13;3.28;;;26.40;99.90;;;;;;8423142;28;20025;-80
2023/08/25 13:45:35;;;;;;;6.22;4.10;;;26.40;99.90;;;;;;8419098;28;20084;-82
2023/08/25 13:49:37;;;;;;;6.47;3.90;;;26.70;99.90;;;;;;8431706;28;20031;-80
2023/08/25 13:53:40;;;;;;;5.90;3.58;;;26.70;99.90;;;;;;8426157;28;20703;-81
2023/08/25 13:57:40;;;;;;;5.07;3.67;;;26.50;99.90;;;;;;8411028;28;20054;-81
2023/08/25 14:01:41;;;;;;;5.75;3.97;;;26.20;99.90;;;;;;8418374;28;20024;-82
2023/08/25 14:05:41;;;;;;;6.18;4.10;;;25.90;99.90;;;;;;8386044;28;20631;-83
2023/08/25 14:09:42;;;;;;;9.63;4.45;;;25.50;99.90;;;;;;8401275;28;20031;-83
2023/08/25 14:13:42;;;;;;;6.05;4.35;;;25.40;99.90;;;;;;8414185;28;20476;-81
2023/08/25 14:17:43;;;;;;;8.77;4.60;;;25.30;99.90;;;;;;8430867;28;20035;-81
2023/08/25 14:21:44;;;;;;;7.55;4.28;;;25.30;99.90;;;;;;8401519;28;20012;-85
2023/08/25 14:25:44;;;;;;;6.32;3.90;;;25.40;99.90;;;;;;8415420;28;20030;-82
2023/08/25 14:29:45;;;;;;;7.03;3.92;;;25.60;99.90;;;;;;8423253;28;20377;-81
2023/08/25 14:33:45;;;;;;;5.63;4.20;;;25.90;99.90;;;;;;8409289;28;20035;-82
2023/08/25 14:37:46;;;;;;;5.03;3.80;;;26.00;99.90;;;;;;8418913;28;20540;-81
2023/08/25 14:41:46;;;;;;;5.70;4.18;;;26.10;99.90;;;;;;8441031;28;20035;-82
2023/08/25 14:45:47;;;;;;;6.07;4.25;;;26.00;99.90;;;;;;8413795;28;20104;-81
2023/08/25 14:49:48;;;;;;;7.35;4.53;;;26.10;99.90;;;;;;8436251;28;20032;-81
2023/08/25 14:53:49;;;;;;;6.18;4.32;;;26.10;99.90;;;;;;8406868;28;20044;-83
2023/08/25 14:57:49;;;;;;;9.02;3.80;;;26.80;99.90;;;;;;8396140;28;20480;-82
2023/08/25 15:01:52;;;;;;;4.70;3.97;;;27.90;99.90;;;;;;8400100;28;20028;-82
2023/08/25 15:06:00;;;;;;;5.63;4.18;;;27.80;99.90;;;;;;8434978;28;20020;-83
2023/08/25 15:10:03;;;;;;;7.32;4.00;;;27.30;99.90;;;;;;8382300;28;20043;-80
2023/08/25 15:14:04;;;;;;;7.20;4.22;;;26.80;99.90;;;;;;8393938;28;20023;-80
2023/08/25 15:18:04;;;;;;;6.40;4.05;;;26.10;99.90;;;;;;8415650;28;20542;-80
2023/08/25 15:22:05;;;;;;;6.10;4.53;;;25.80;99.90;;;;;;8409120;28;20078;-79
2023/08/25 15:26:05;;;;;;;6.85;4.38;;;25.30;99.90;;;;;;8400979;28;20033;-80
2023/08/25 15:30:07;;;;;;;5.97;4.60;;;25.10;99.90;;;;;;8394313;28;20017;-80
2023/08/25 15:34:08;;;;;;;6.85;4.70;;;25.60;99.90;;;;;;8385387;28;20028;-81
2023/08/25 15:38:08;;;;;;;6.10;4.53;;;26.40;99.90;;;;;;8406002;28;20596;-80
2023/08/25 15:42:09;;;;;;;7.22;4.50;;;27.00;99.90;;;;;;8420533;28;20096;-79
2023/08/25 15:46:10;;;;;;;14.48;6.07;;;28.60;99.90;;;;;;8391984;28;20025;-78
2023/08/25 15:50:11;;;;;;;10.68;5.47;;;28.80;99.90;;;;;;8409964;28;20090;-78
2023/08/25 15:54:11;;;;;;;10.68;5.72;;;28.00;99.90;;;;;;8417340;28;20035;-80
2023/08/25 15:58:12;;;;;;;7.80;5.15;;;27.00;99.90;;;;;;8391954;28;20025;-80
2023/08/25 16:02:13;;;;;;;6.57;4.85;;;26.30;99.90;;;;;;8400426;28;20038;-80
2023/08/25 16:06:13;;;;;;;6.32;4.68;;;26.00;99.90;;;;;;8417211;28;20096;-80
2023/08/25 16:10:14;;;;;;;8.65;4.85;;;25.70;99.90;;;;;;8424883;28;20031;-80
2023/08/25 16:14:15;;;;;;;6.75;5.30;;;25.50;99.90;;;;;;8403609;28;20567;-81
2023/08/25 16:18:15;;;;;;;6.10;5.13;;;25.30;99.90;;;;;;8424972;28;20503;-80
2023/08/25 16:22:16;;;;;;;7.85;5.43;;;25.40;99.90;;;;;;8423676;28;20391;-81
2023/08/25 16:26:16;;;;;;;7.55;4.90;;;25.10;99.90;;;;;;8432708;28;20035;-80
2023/08/25 16:30:18;;;;;;;12.48;6.22;;;24.80;99.90;;;;;;8418840;28;20021;-80
2023/08/25 16:34:18;;;;;;;7.18;5.50;;;24.60;99.90;;;;;;8430035;28;20056;-81
2023/08/25 16:38:19;;;;;;;8.20;5.43;;;25.30;99.90;;;;;;8431538;28;20024;-81
2023/08/25 16:42:19;;;;;;;7.93;5.40;;;25.50;99.90;;;;;;8423398;28;20024;-80
2023/08/25 16:46:20;;;;;;;9.00;5.90;;;25.30;99.90;;;;;;8447923;28;20031;-82
2023/08/25 16:50:21;;;;;;;21.55;7.55;;;25.00;99.90;;;;;;8432308;28;20451;-83
2023/08/25 16:54:21;;;;;;;7.05;5.90;;;24.80;99.90;;;;;;8459682;28;20085;-81
2023/08/25 16:58:22;;;;;;;8.57;6.65;;;24.70;99.90;;;;;;8440996;28;20615;-82
2023/08/25 17:02:23;;;;;;;7.78;6.25;;;24.60;99.90;;;;;;8457206;28;20024;-81
2023/08/25 17:06:23;;;;;;;7.18;5.97;;;24.40;99.90;;;;;;8456760;28;20020;-80
2023/08/25 17:10:27;;;;;;;9.25;6.78;;;24.50;99.90;;;;;;8430031;28;20050;-81
2023/08/25 17:14:27;;;;;;;8.48;6.85;;;24.40;99.90;;;;;;8438743;28;20016;-81
2023/08/25 17:18:28;;;;;;;9.45;6.60;;;24.60;99.90;;;;;;8443889;28;20608;-80
2023/08/25 17:22:29;;;;;;;8.68;6.15;;;25.00;99.90;;;;;;8449234;28;20032;-81
2023/08/25 17:26:29;;;;;;;8.77;6.32;;;25.10;99.90;;;;;;8450675;28;20310;-82
2023/08/25 17:30:30;;;;;;;8.63;6.30;;;25.00;99.90;;;;;;8463706;28;20041;-81
2023/08/25 17:34:30;;;;;;;9.50;6.80;;;24.80;99.90;;;;;;8423206;28;20141;-81
2023/08/25 17:38:31;;;;;;;9.82;6.35;;;24.40;99.90;;;;;;8439661;28;20488;-81
2023/08/25 17:42:32;;;;;;;9.07;6.82;;;24.10;99.90;;;;;;8459087;28;20026;-81
2023/08/25 17:46:32;;;;;;;9.95;6.75;;;23.80;99.90;;;;;;8449150;28;20035;-80
2023/08/25 17:50:33;;;;;;;7.80;6.22;;;23.70;99.90;;;;;;8457657;28;20051;-80
2023/08/25 17:54:37;;;;;;;9.27;6.30;;;23.60;99.90;;;;;;8433837;28;20031;-82
2023/08/25 17:58:38;;;;;;;7.03;6.15;;;23.20;99.90;;;;;;8455280;28;20028;-81
2023/08/25 18:02:38;;;;;;;9.07;7.00;;;22.90;99.90;;;;;;8444589;28;20114;-79
2023/08/25 18:06:39;;;;;;;11.32;7.28;;;22.90;99.90;;;;;;8444366;28;20028;-81
2023/08/25 18:10:39;;;;;;;9.98;8.30;;;22.50;99.90;;;;;;8398851;22;20049;-78
2023/08/25 18:14:40;;;;;;;10.60;8.07;;;22.20;99.90;;;;;;8352503;28;20022;-77
2023/08/25 18:18:40;;;;;;;11.25;8.45;;;22.40;99.90;;;;;;8329624;28;20514;-78
2023/08/25 18:22:41;;;;;;;10.52;8.15;;;22.20;99.90;;;;;;8322369;28;20022;-78
2023/08/25 18:26:41;;;;;;;9.70;8.27;;;22.20;99.90;;;;;;8318575;28;20042;-78
2023/08/25 18:30:42;;;;;;;10.18;8.93;;;22.10;99.90;;;;;;8308770;28;20062;-77
2023/08/25 18:34:45;;;;;;;12.75;9.00;;;21.80;99.90;;;;;;8233983;28;20046;-78
2023/08/25 18:38:46;;;;;;;13.20;9.55;;;21.50;99.90;;;;;;8251312;28;20054;-78
2023/08/25 18:42:46;;;;;;;14.23;10.45;;;21.30;99.90;;;;;;8314284;28;20037;-78
2023/08/25 18:46:47;;;;;;;13.23;10.50;;;21.30;99.90;;;;;;8263047;28;20065;-77
2023/08/25 18:50:47;;;;;;;13.23;10.13;;;21.20;99.90;;;;;;8233793;28;20034;-79
2023/08/25 18:54:48;;;;;;;11.60;9.27;;;21.30;99.90;;;;;;8307098;28;20026;-78
2023/08/25 18:58:48;;;;;;;13.85;9.60;;;21.70;99.90;;;;;;8246415;28;20065;-78
2023/08/25 19:02:49;;;;;;;13.07;9.75;;;21.90;99.90;;;;;;8243818;28;20022;-79
2023/08/25 19:06:49;;;;;;;10.43;8.73;;;21.70;99.90;;;;;;8309038;28;20042;-78
2023/08/25 19:10:53;;;;;;;12.02;9.55;;;21.80;99.90;;;;;;8316789;28;20113;-78
2023/08/25 19:14:54;;;;;;;11.38;9.88;;;21.50;99.90;;;;;;8338846;28;20034;-79
2023/08/25 19:18:56;;;;;;;11.15;9.73;;;21.20;99.90;;;;;;8347135;28;20121;-79
2023/08/25 19:22:56;;;;;;;14.20;11.10;;;21.20;99.90;;;;;;8350057;28;20240;-78
2023/08/25 19:26:57;;;;;;;12.32;10.98;;;21.00;99.90;;;;;;8329787;28;20454;-78
2023/08/25 19:31:02;;;;;;;13.63;11.05;;;21.00;99.90;;;;;;8271479;28;20114;-78
2023/08/25 19:35:03;;;;;;;13.90;11.77;;;20.90;99.90;;;;;;8338935;28;20048;-78
2023/08/25 19:39:07;;;;;;;16.25;11.75;;;20.90;99.90;;;;;;8339392;28;20033;-78
2023/08/25 19:43:08;;;;;;;17.17;13.10;;;20.80;99.90;;;;;;8327091;28;20508;-77
2023/08/25 19:47:08;;;;;;;20.85;13.05;;;21.00;99.90;;;;;;8335381;28;20034;-77
2023/08/25 19:51:09;;;;;;;23.60;13.98;;;21.00;99.90;;;;;;8328463;28;20027;-78
2023/08/25 19:55:10;;;;;;;16.25;11.25;;;20.80;99.90;;;;;;8316966;28;20030;-77
2023/08/25 19:59:10;;;;;;;11.32;10.05;;;20.50;99.90;;;;;;8259945;28;20065;-77
2023/08/25 20:03:11;;;;;;;14.10;9.93;;;20.30;99.90;;;;;;8247669;28;20479;-77
2023/08/25 20:07:11;;;;;;;12.70;9.30;;;20.10;99.90;;;;;;8256000;28;20070;-76
2023/08/25 20:11:12;;;;;;;14.32;10.85;;;20.20;99.90;;;;;;8319853;28;20475;-76
2023/08/25 20:15:15;;;;;;;15.57;11.35;;;19.90;99.90;;;;;;8322751;28;20105;-76
2023/08/25 20:19:15;;;;;;;14.48;11.10;;;19.90;99.90;;;;;;8322017;28;20037;-76
2023/08/25 20:23:16;;;;;;;17.42;13.57;;;19.80;99.90;;;;;;8284686;28;20042;-76
2023/08/25 20:27:17;;;;;;;14.93;11.80;;;19.50;99.90;;;;;;8281159;28;20056;-77
2023/08/25 20:31:17;;;;;;;14.65;10.90;;;19.50;99.90;;;;;;8318090;28;20026;-77
2023/08/25 20:35:18;;;;;;;13.65;10.60;;;19.70;99.90;;;;;;8271564;28;20032;-77
2023/08/25 20:39:18;;;;;;;15.48;12.85;;;19.80;99.90;;;;;;8256347;28;20030;-78
2023/08/25 20:43:19;;;;;;;16.08;12.05;;;19.60;99.90;;;;;;8336358;28;20656;-78
2023/08/25 20:47:19;;;;;;;15.48;12.48;;;19.60;99.90;;;;;;8258451;28;20230;-78
2023/08/25 20:51:22;;;;;;;16.35;13.30;;;19.40;99.90;;;;;;8341756;28;20010;-78
2023/08/25 20:55:23;;;;;;;18.95;14.00;;;19.10;99.90;;;;;;8335944;28;20022;-77